createdAt,value
2017-11-07T00:00:08.887Z,19.48
2017-11-07T00:00:45.325Z,16.33
2017-11-07T00:01:22.034Z,19.50
2017-11-07T00:01:58.746Z,21.20
2017-11-07T00:02:33.472Z,17.58
2017-11-07T00:03:10.931Z,23.27
2017-11-07T00:03:48.916Z,18.77
2017-11-07T00:05:08.383Z,17.42
2017-11-07T00:05:43.510Z,16.90
2017-11-07T00:06:18.725Z,16.35
2017-11-07T00:06:53.620Z,17.30
2017-11-07T00:07:28.427Z,16.73
2017-11-07T00:08:03.176Z,16.15
2017-11-07T00:08:38.225Z,15.82
2017-11-07T00:09:13.319Z,15.15
2017-11-07T00:09:48.539Z,15.65
2017-11-07T00:10:22.686Z,15.55
2017-11-07T00:10:57.020Z,16.12
2017-11-07T00:11:31.390Z,16.27
2017-11-07T00:12:05.536Z,15.43
2017-11-07T00:12:40.223Z,17.20
2017-11-07T00:13:14.219Z,15.27
2017-11-07T00:13:48.434Z,14.85
2017-11-07T00:14:22.369Z,16.83
2017-11-07T00:14:56.252Z,15.57
2017-11-07T00:15:30.147Z,15.15
2017-11-07T00:16:04.015Z,17.75
2017-11-07T00:16:37.910Z,17.30
2017-11-07T00:17:11.813Z,15.20
2017-11-07T00:17:45.693Z,18.15
2017-11-07T00:18:20.518Z,17.05
2017-11-07T00:18:55.122Z,16.30
2017-11-07T00:19:29.781Z,15.80
2017-11-07T00:20:05.335Z,14.90
2017-11-07T00:20:40.351Z,17.83
2017-11-07T00:21:15.023Z,16.92
2017-11-07T00:21:49.951Z,17.35
2017-11-07T00:22:31.140Z,16.05
2017-11-07T00:23:06.890Z,15.75
2017-11-07T00:23:41.398Z,16.12
2017-11-07T00:24:15.515Z,16.52
2017-11-07T00:24:49.992Z,16.85
2017-11-07T00:25:24.485Z,17.48
2017-11-07T00:25:59.012Z,15.43
2017-11-07T00:26:33.249Z,16.30
2017-11-07T00:27:07.958Z,15.40
2017-11-07T00:27:42.219Z,15.85
2017-11-07T00:28:16.972Z,16.17
2017-11-07T00:28:51.515Z,14.73
2017-11-07T00:29:27.684Z,16.15
2017-11-07T00:30:01.649Z,15.38
2017-11-07T00:30:36.296Z,15.52
2017-11-07T00:31:10.537Z,16.12
2017-11-07T00:31:45.287Z,17.25
2017-11-07T00:32:20.082Z,17.02
2017-11-07T00:32:54.022Z,16.02
2017-11-07T00:33:28.084Z,15.15
2017-11-07T00:34:03.369Z,15.50
2017-11-07T00:34:37.853Z,16.30
2017-11-07T00:35:12.087Z,14.70
2017-11-07T00:35:46.545Z,14.57
2017-11-07T00:36:20.944Z,15.32
2017-11-07T00:36:55.104Z,13.55
2017-11-07T00:37:29.309Z,14.82
2017-11-07T00:38:04.276Z,14.63
2017-11-07T00:38:38.231Z,15.30
2017-11-07T00:39:12.740Z,14.57
2017-11-07T00:39:46.737Z,15.35
2017-11-07T00:40:20.664Z,14.10
2017-11-07T00:40:54.557Z,16.65
2017-11-07T00:41:28.452Z,15.43
2017-11-07T00:42:02.350Z,16.83
2017-11-07T00:42:36.241Z,16.08
2017-11-07T00:43:11.087Z,16.75
2017-11-07T00:43:45.877Z,16.42
2017-11-07T00:44:21.080Z,15.63
2017-11-07T00:44:57.179Z,16.77
2017-11-07T00:45:32.152Z,16.10
2017-11-07T00:46:07.407Z,16.62
2017-11-07T00:46:42.588Z,15.15
2017-11-07T00:47:17.649Z,15.30
2017-11-07T00:47:53.637Z,16.25
2017-11-07T00:48:28.427Z,15.45
2017-11-07T00:49:03.892Z,17.60
2017-11-07T00:49:39.188Z,16.77
2017-11-07T00:50:16.713Z,16.30
2017-11-07T00:50:52.274Z,15.60
2017-11-07T00:51:26.992Z,13.68
2017-11-07T00:52:01.857Z,15.95
2017-11-07T00:52:36.709Z,15.15
2017-11-07T00:53:11.544Z,16.70
2017-11-07T00:53:48.243Z,15.27
2017-11-07T00:54:24.734Z,15.65
2017-11-07T00:54:59.800Z,16.05
2017-11-07T00:55:34.558Z,16.80
2017-11-07T00:56:09.453Z,16.98
2017-11-07T00:56:43.915Z,16.83
2017-11-07T00:57:17.871Z,15.55
2017-11-07T00:57:53.237Z,16.12
2017-11-07T00:58:28.055Z,15.57
2017-11-07T00:59:02.907Z,16.15
2017-11-07T00:59:36.941Z,17.37
2017-11-07T01:00:11.688Z,15.43
2017-11-07T01:00:46.515Z,15.13
2017-11-07T01:01:21.145Z,15.20
2017-11-07T01:01:55.843Z,14.43
2017-11-07T01:02:30.776Z,14.10
2017-11-07T01:03:04.702Z,14.23
2017-11-07T01:03:38.582Z,15.85
2017-11-07T01:04:12.457Z,16.30
2017-11-07T01:04:46.353Z,17.10
2017-11-07T01:05:20.252Z,15.88
2017-11-07T01:05:54.144Z,15.05
2017-11-07T01:06:28.735Z,16.98
2017-11-07T01:07:03.302Z,16.40
2017-11-07T01:07:38.534Z,17.37
2017-11-07T01:08:13.510Z,16.15
2017-11-07T01:08:50.135Z,16.77
2017-11-07T01:09:25.374Z,15.95
2017-11-07T01:09:59.327Z,16.98
2017-11-07T01:10:33.218Z,15.70
2017-11-07T01:11:07.116Z,16.15
2017-11-07T01:11:41.008Z,17.23
2017-11-07T01:12:14.910Z,16.55
2017-11-07T01:12:48.798Z,14.95
2017-11-07T01:13:22.688Z,16.48
2017-11-07T01:13:56.623Z,15.85
2017-11-07T01:14:30.524Z,16.90
2017-11-07T01:15:04.413Z,16.12
2017-11-07T01:15:38.275Z,15.95
2017-11-07T01:16:12.169Z,14.85
2017-11-07T01:16:46.067Z,16.67
2017-11-07T01:17:19.967Z,16.50
2017-11-07T01:17:53.863Z,17.48
2017-11-07T01:18:27.753Z,16.90
2017-11-07T01:19:01.639Z,14.98
2017-11-07T01:19:35.539Z,16.45
2017-11-07T01:20:09.424Z,16.58
2017-11-07T01:20:43.321Z,16.67
2017-11-07T01:21:17.216Z,16.20
2017-11-07T01:21:51.106Z,14.93
2017-11-07T01:22:25.162Z,15.60
2017-11-07T01:22:59.052Z,16.92
2017-11-07T01:23:32.944Z,16.90
2017-11-07T01:24:06.825Z,17.40
2017-11-07T01:24:40.730Z,16.17
2017-11-07T01:25:14.629Z,16.10
2017-11-07T01:25:48.522Z,16.10
2017-11-07T01:26:22.410Z,15.82
2017-11-07T01:26:56.309Z,16.27
2017-11-07T01:27:30.204Z,16.05
2017-11-07T01:28:04.106Z,17.40
2017-11-07T01:28:37.993Z,18.67
2017-11-07T01:29:11.886Z,16.42
2017-11-07T01:29:45.893Z,17.45
2017-11-07T01:30:19.790Z,16.87
2017-11-07T01:30:53.670Z,16.70
2017-11-07T01:31:27.564Z,16.15
2017-11-07T01:32:01.458Z,16.60
2017-11-07T01:32:35.382Z,17.10
2017-11-07T01:33:09.272Z,14.48
2017-11-07T01:33:43.146Z,15.07
2017-11-07T01:34:17.037Z,15.13
2017-11-07T01:34:50.946Z,14.63
2017-11-07T01:35:25.565Z,16.15
2017-11-07T01:35:59.469Z,14.85
2017-11-07T01:36:33.979Z,15.80
2017-11-07T01:37:07.873Z,16.25
2017-11-07T01:37:41.767Z,16.65
2017-11-07T01:38:15.663Z,15.43
2017-11-07T01:38:50.440Z,15.07
2017-11-07T01:39:24.329Z,14.43
2017-11-07T01:39:58.231Z,14.80
2017-11-07T01:40:32.128Z,15.43
2017-11-07T01:41:06.074Z,15.65
2017-11-07T01:41:39.962Z,16.02
2017-11-07T01:42:13.852Z,16.17
2017-11-07T01:42:47.758Z,16.27
2017-11-07T01:43:21.635Z,16.15
2017-11-07T01:43:55.535Z,15.02
2017-11-07T01:44:29.424Z,13.88
2017-11-07T01:45:03.317Z,15.68
2017-11-07T01:45:37.227Z,14.07
2017-11-07T01:46:11.107Z,15.18
2017-11-07T01:46:44.996Z,14.90
2017-11-07T01:47:18.906Z,14.40
2017-11-07T01:47:53.161Z,14.57
2017-11-07T01:48:27.036Z,15.27
2017-11-07T01:49:00.922Z,15.13
2017-11-07T01:49:34.813Z,14.40
2017-11-07T01:50:08.708Z,14.75
2017-11-07T01:50:42.785Z,14.38
2017-11-07T01:51:16.674Z,14.45
2017-11-07T01:51:50.577Z,16.02
2017-11-07T01:52:24.461Z,15.38
2017-11-07T01:52:58.365Z,14.40
2017-11-07T01:53:32.240Z,14.65
2017-11-07T01:54:06.107Z,15.77
2017-11-07T01:54:40.008Z,17.30
2017-11-07T01:55:13.899Z,16.75
2017-11-07T01:55:48.517Z,16.08
2017-11-07T01:56:22.389Z,14.43
2017-11-07T01:56:56.264Z,15.88
2017-11-07T01:57:30.160Z,15.85
2017-11-07T01:58:04.054Z,16.10
2017-11-07T01:58:37.950Z,15.88
2017-11-07T01:59:11.865Z,15.98
2017-11-07T01:59:46.663Z,16.67
2017-11-07T02:00:20.554Z,16.85
2017-11-07T02:00:54.445Z,15.13
2017-11-07T02:01:28.348Z,17.00
2017-11-07T02:02:02.232Z,14.75
2017-11-07T02:02:36.142Z,16.20
2017-11-07T02:03:10.139Z,15.25
2017-11-07T02:03:44.028Z,15.63
2017-11-07T02:04:17.922Z,14.93
2017-11-07T02:04:52.499Z,14.98
2017-11-07T02:05:26.386Z,15.43
2017-11-07T02:06:00.293Z,15.48
2017-11-07T02:06:34.186Z,16.10
2017-11-07T02:07:08.324Z,14.68
2017-11-07T02:08:22.552Z,14.45
2017-11-07T02:08:56.456Z,15.00
2017-11-07T02:09:30.335Z,15.70
2017-11-07T02:10:04.191Z,15.10
2017-11-07T02:10:38.092Z,13.90
2017-11-07T02:11:11.976Z,13.60
2017-11-07T02:11:45.860Z,13.90
2017-11-07T02:12:19.769Z,13.50
2017-11-07T02:12:53.668Z,13.25
2017-11-07T02:13:27.560Z,13.90
2017-11-07T02:14:01.445Z,14.70
2017-11-07T02:14:35.339Z,14.52
2017-11-07T02:15:09.224Z,14.10
2017-11-07T02:15:43.119Z,13.55
2017-11-07T02:16:16.974Z,14.18
2017-11-07T02:16:50.885Z,14.13
2017-11-07T02:17:24.767Z,14.80
2017-11-07T02:17:58.660Z,13.80
2017-11-07T02:18:32.551Z,14.13
2017-11-07T02:19:06.447Z,14.38
2017-11-07T02:19:40.346Z,13.07
2017-11-07T02:20:14.246Z,13.55
2017-11-07T02:20:48.138Z,14.30
2017-11-07T02:21:22.267Z,13.82
2017-11-07T02:21:56.159Z,13.30
2017-11-07T02:22:30.670Z,13.27
2017-11-07T02:23:04.566Z,13.52
2017-11-07T02:23:38.485Z,13.45
2017-11-07T02:24:12.390Z,14.40
2017-11-07T02:24:46.279Z,12.70
2017-11-07T02:25:20.169Z,13.98
2017-11-07T02:25:54.054Z,12.40
2017-11-07T02:26:27.933Z,12.75
2017-11-07T02:27:01.826Z,13.05
2017-11-07T02:27:35.723Z,14.00
2017-11-07T02:28:09.622Z,11.60
2017-11-07T02:28:43.521Z,13.68
2017-11-07T02:29:17.430Z,14.63
2017-11-07T02:29:51.306Z,12.65
2017-11-07T02:30:25.196Z,12.52
2017-11-07T02:30:59.099Z,13.40
2017-11-07T02:31:32.982Z,12.43
2017-11-07T02:32:07.850Z,13.88
2017-11-07T02:32:41.772Z,12.43
2017-11-07T02:33:16.590Z,12.40
2017-11-07T02:33:50.610Z,12.80
2017-11-07T02:34:24.507Z,14.25
2017-11-07T02:34:58.396Z,15.43
2017-11-07T02:35:32.300Z,13.02
2017-11-07T02:36:06.219Z,13.25
2017-11-07T02:36:40.107Z,12.82
2017-11-07T02:37:14.006Z,12.25
2017-11-07T02:37:47.892Z,12.40
2017-11-07T02:38:21.798Z,12.27
2017-11-07T02:38:55.730Z,11.77
2017-11-07T02:39:29.630Z,13.75
2017-11-07T02:40:03.516Z,12.88
2017-11-07T02:40:37.394Z,12.80
2017-11-07T02:41:11.795Z,13.18
2017-11-07T02:41:45.670Z,13.00
2017-11-07T02:42:19.565Z,12.85
2017-11-07T02:42:53.448Z,12.63
2017-11-07T02:43:27.335Z,11.68
2017-11-07T02:44:01.241Z,11.82
2017-11-07T02:44:35.120Z,11.15
2017-11-07T02:45:09.014Z,12.88
2017-11-07T02:45:42.926Z,13.05
2017-11-07T02:46:16.838Z,11.60
2017-11-07T02:46:50.911Z,12.40
2017-11-07T02:47:24.801Z,12.45
2017-11-07T02:47:58.690Z,12.57
2017-11-07T02:48:32.579Z,13.35
2017-11-07T02:49:06.483Z,13.27
2017-11-07T02:49:40.373Z,13.20
2017-11-07T02:50:14.280Z,12.00
2017-11-07T02:50:48.167Z,10.77
2017-11-07T02:51:22.060Z,12.52
2017-11-07T02:51:55.956Z,11.32
2017-11-07T02:52:29.846Z,12.13
2017-11-07T02:53:03.745Z,11.65
2017-11-07T02:53:37.657Z,11.40
2017-11-07T02:54:11.544Z,11.43
2017-11-07T02:54:45.433Z,13.30
2017-11-07T02:55:19.322Z,11.82
2017-11-07T02:55:53.200Z,12.27
2017-11-07T02:56:27.097Z,13.25
2017-11-07T02:57:00.968Z,12.95
2017-11-07T02:57:34.863Z,12.35
2017-11-07T02:58:08.766Z,11.90
2017-11-07T02:58:42.651Z,12.25
2017-11-07T02:59:16.554Z,12.80
2017-11-07T02:59:50.440Z,12.02
2017-11-07T03:00:24.335Z,11.43
2017-11-07T03:00:58.265Z,11.40
2017-11-07T03:01:32.161Z,11.95
2017-11-07T03:02:06.075Z,11.60
2017-11-07T03:02:39.980Z,12.20
2017-11-07T03:03:13.877Z,11.82
2017-11-07T03:03:47.771Z,11.73
2017-11-07T03:04:21.664Z,12.35
2017-11-07T03:04:55.561Z,12.05
2017-11-07T03:05:29.450Z,14.77
2017-11-07T03:06:03.555Z,15.50
2017-11-07T03:06:37.434Z,13.40
2017-11-07T03:07:11.313Z,12.18
2017-11-07T03:07:45.212Z,12.45
2017-11-07T03:08:19.103Z,11.95
2017-11-07T03:08:53.128Z,11.48
2017-11-07T03:09:27.021Z,11.88
2017-11-07T03:10:00.933Z,12.55
2017-11-07T03:10:34.829Z,11.80
2017-11-07T03:11:08.710Z,12.55
2017-11-07T03:11:42.581Z,13.88
2017-11-07T03:12:16.470Z,11.80
2017-11-07T03:12:50.355Z,12.82
2017-11-07T03:13:24.234Z,13.52
2017-11-07T03:13:58.117Z,12.13
2017-11-07T03:14:32.022Z,11.70
2017-11-07T03:15:05.910Z,12.68
2017-11-07T03:15:39.818Z,12.37
2017-11-07T03:16:13.702Z,12.85
2017-11-07T03:16:47.585Z,12.85
2017-11-07T03:17:21.471Z,12.57
2017-11-07T03:17:55.373Z,12.05
2017-11-07T03:18:29.240Z,13.20
2017-11-07T03:19:03.123Z,11.77
2017-11-07T03:19:37.005Z,11.75
2017-11-07T03:20:10.872Z,12.63
2017-11-07T03:20:44.756Z,12.45
2017-11-07T03:21:18.641Z,12.35
2017-11-07T03:21:52.542Z,12.93
2017-11-07T03:22:26.428Z,11.95
2017-11-07T03:23:00.324Z,12.75
2017-11-07T03:23:34.211Z,11.45
2017-11-07T03:24:08.562Z,12.48
2017-11-07T03:24:42.475Z,12.75
2017-11-07T03:25:16.360Z,14.60
2017-11-07T03:25:50.254Z,12.15
2017-11-07T03:26:24.136Z,13.10
2017-11-07T03:26:58.019Z,12.18
2017-11-07T03:27:31.928Z,12.90
2017-11-07T03:28:05.819Z,12.80
2017-11-07T03:28:39.716Z,12.70
2017-11-07T03:29:13.610Z,11.95
2017-11-07T03:29:47.499Z,11.30
2017-11-07T03:30:21.383Z,12.27
2017-11-07T03:30:55.275Z,12.52
2017-11-07T03:31:29.189Z,13.50
2017-11-07T03:32:03.076Z,11.73
2017-11-07T03:32:36.953Z,12.60
2017-11-07T03:33:10.842Z,12.37
2017-11-07T03:33:44.935Z,12.23
2017-11-07T03:34:18.817Z,12.93
2017-11-07T03:34:52.734Z,12.50
2017-11-07T03:35:26.930Z,11.73
2017-11-07T03:36:00.818Z,12.52
2017-11-07T03:36:34.731Z,12.88
2017-11-07T03:37:08.621Z,11.60
2017-11-07T03:37:42.499Z,11.98
2017-11-07T03:38:16.388Z,12.70
2017-11-07T03:38:50.304Z,12.60
2017-11-07T03:39:24.197Z,11.57
2017-11-07T03:39:58.084Z,11.43
2017-11-07T03:40:31.989Z,11.55
2017-11-07T03:41:05.867Z,11.30
2017-11-07T03:41:39.806Z,11.88
2017-11-07T03:42:13.698Z,11.70
2017-11-07T03:42:47.603Z,11.70
2017-11-07T03:43:21.487Z,10.93
2017-11-07T03:43:55.379Z,11.35
2017-11-07T03:44:29.279Z,11.48
2017-11-07T03:45:03.186Z,11.52
2017-11-07T03:45:37.103Z,11.77
2017-11-07T03:46:10.984Z,11.48
2017-11-07T03:46:44.852Z,11.30
2017-11-07T03:47:18.750Z,11.35
2017-11-07T03:47:52.630Z,11.95
2017-11-07T03:48:26.535Z,11.05
2017-11-07T03:49:00.417Z,11.85
2017-11-07T03:49:34.305Z,11.80
2017-11-07T03:50:08.194Z,12.13
2017-11-07T03:50:42.081Z,12.60
2017-11-07T03:51:15.973Z,11.60
2017-11-07T03:51:49.867Z,11.93
2017-11-07T03:52:23.761Z,13.18
2017-11-07T03:52:57.668Z,11.70
2017-11-07T03:53:31.560Z,11.82
2017-11-07T03:54:05.435Z,12.07
2017-11-07T03:54:39.345Z,11.98
2017-11-07T03:55:13.261Z,11.52
2017-11-07T03:55:47.152Z,12.35
2017-11-07T03:56:21.160Z,12.50
2017-11-07T03:56:55.061Z,11.65
2017-11-07T03:57:28.955Z,11.63
2017-11-07T03:58:02.856Z,10.65
2017-11-07T03:58:36.743Z,11.82
2017-11-07T03:59:11.288Z,11.65
2017-11-07T03:59:45.193Z,11.40
2017-11-07T04:00:19.109Z,12.48
2017-11-07T04:00:52.982Z,11.15
2017-11-07T04:01:26.866Z,11.55
2017-11-07T04:02:00.759Z,11.43
2017-11-07T04:02:34.655Z,11.57
2017-11-07T04:03:08.537Z,11.40
2017-11-07T04:03:42.420Z,12.20
2017-11-07T04:04:16.302Z,11.75
2017-11-07T04:04:50.313Z,12.05
2017-11-07T04:05:24.222Z,12.75
2017-11-07T04:05:58.121Z,12.15
2017-11-07T04:06:32.401Z,13.10
2017-11-07T04:07:06.290Z,12.50
2017-11-07T04:07:40.194Z,13.50
2017-11-07T04:08:14.085Z,11.85
2017-11-07T04:08:47.968Z,13.15
2017-11-07T04:09:21.867Z,12.35
2017-11-07T04:09:55.760Z,11.45
2017-11-07T04:10:29.657Z,12.37
2017-11-07T04:11:03.545Z,11.43
2017-11-07T04:11:37.433Z,11.95
2017-11-07T04:12:11.314Z,11.45
2017-11-07T04:12:45.200Z,12.25
2017-11-07T04:13:19.063Z,10.77
2017-11-07T04:13:52.955Z,11.68
2017-11-07T04:14:26.844Z,10.63
2017-11-07T04:15:00.733Z,11.70
2017-11-07T04:15:34.633Z,10.98
2017-11-07T04:16:08.539Z,11.70
2017-11-07T04:16:42.430Z,10.98
2017-11-07T04:17:16.321Z,11.38
2017-11-07T04:17:50.206Z,11.68
2017-11-07T04:18:24.100Z,11.88
2017-11-07T04:18:57.996Z,11.50
2017-11-07T04:19:31.871Z,11.57
2017-11-07T04:20:05.750Z,10.43
2017-11-07T04:20:39.715Z,10.93
2017-11-07T04:21:13.589Z,11.05
2017-11-07T04:21:47.474Z,12.20
2017-11-07T04:22:21.368Z,11.73
2017-11-07T04:22:55.274Z,10.95
2017-11-07T04:23:29.739Z,11.73
2017-11-07T04:24:03.974Z,11.45
2017-11-07T04:24:37.862Z,11.05
2017-11-07T04:25:11.737Z,11.18
2017-11-07T04:25:45.635Z,10.70
2017-11-07T04:26:19.529Z,12.18
2017-11-07T04:26:53.417Z,11.20
2017-11-07T04:27:27.314Z,11.15
2017-11-07T04:28:01.207Z,13.02
2017-11-07T04:28:35.102Z,11.48
2017-11-07T04:29:09.032Z,11.02
2017-11-07T04:29:42.924Z,11.40
2017-11-07T04:30:16.813Z,10.38
2017-11-07T04:30:50.918Z,11.02
2017-11-07T04:31:24.812Z,12.00
2017-11-07T04:31:58.700Z,11.80
2017-11-07T04:32:32.640Z,12.27
2017-11-07T04:33:06.530Z,10.82
2017-11-07T04:33:40.423Z,11.25
2017-11-07T04:34:14.534Z,12.00
2017-11-07T04:34:48.413Z,11.65
2017-11-07T04:35:40.672Z,11.55
2017-11-07T04:36:14.830Z,11.60
2017-11-07T04:36:48.730Z,12.73
2017-11-07T04:37:22.816Z,12.65
2017-11-07T04:37:56.716Z,11.23
2017-11-07T04:38:30.677Z,13.65
2017-11-07T04:39:04.554Z,12.90
2017-11-07T04:39:38.449Z,13.20
2017-11-07T04:40:12.404Z,12.65
2017-11-07T04:40:47.333Z,12.45
2017-11-07T04:42:25.580Z,11.30
2017-11-07T04:42:59.452Z,11.30
2017-11-07T04:43:33.334Z,11.40
2017-11-07T04:44:07.219Z,11.30
2017-11-07T04:44:41.117Z,10.60
2017-11-07T04:45:15.005Z,11.90
2017-11-07T04:45:48.911Z,11.98
2017-11-07T04:46:22.800Z,13.10
2017-11-07T04:46:56.689Z,11.65
2017-11-07T04:47:30.588Z,11.48
2017-11-07T04:48:04.477Z,12.48
2017-11-07T04:48:38.373Z,11.90
2017-11-07T04:49:12.257Z,11.77
2017-11-07T04:49:46.168Z,11.93
2017-11-07T04:50:20.056Z,12.25
2017-11-07T04:50:54.276Z,12.02
2017-11-07T04:51:28.179Z,12.77
2017-11-07T04:52:02.074Z,11.15
2017-11-07T04:52:35.967Z,11.20
2017-11-07T04:53:09.835Z,12.10
2017-11-07T04:53:44.347Z,12.18
2017-11-07T04:54:18.241Z,11.07
2017-11-07T04:54:52.141Z,11.15
2017-11-07T04:55:26.032Z,11.68
2017-11-07T04:55:59.926Z,10.10
2017-11-07T04:56:33.828Z,11.40
2017-11-07T04:57:07.719Z,11.35
2017-11-07T04:57:41.589Z,13.07
2017-11-07T04:58:15.465Z,11.90
2017-11-07T04:58:49.362Z,13.20
2017-11-07T04:59:23.257Z,11.90
2017-11-07T04:59:57.134Z,11.50
2017-11-07T05:00:31.017Z,10.65
2017-11-07T05:01:04.916Z,12.98
2017-11-07T05:01:38.888Z,12.77
2017-11-07T05:02:13.618Z,12.55
2017-11-07T05:02:47.532Z,12.13
2017-11-07T05:03:21.427Z,12.37
2017-11-07T05:03:55.334Z,12.65
2017-11-07T05:04:29.213Z,12.32
2017-11-07T05:05:03.120Z,11.00
2017-11-07T05:05:36.993Z,11.50
2017-11-07T05:06:10.886Z,11.75
2017-11-07T05:06:45.261Z,10.90
2017-11-07T05:07:19.148Z,11.85
2017-11-07T05:07:53.044Z,12.35
2017-11-07T05:08:26.939Z,11.50
2017-11-07T05:09:00.835Z,12.10
2017-11-07T05:09:34.729Z,11.68
2017-11-07T05:10:08.741Z,11.75
2017-11-07T05:10:42.618Z,13.48
2017-11-07T05:11:16.519Z,10.75
2017-11-07T05:11:50.427Z,10.68
2017-11-07T05:12:25.192Z,10.90
2017-11-07T05:12:59.090Z,11.38
2017-11-07T05:13:32.974Z,10.68
2017-11-07T05:14:06.867Z,11.40
2017-11-07T05:14:40.733Z,10.95
2017-11-07T05:15:14.604Z,11.18
2017-11-07T05:15:48.510Z,11.23
2017-11-07T05:16:22.396Z,12.43
2017-11-07T05:16:56.311Z,11.90
2017-11-07T05:17:30.209Z,11.48
2017-11-07T05:18:04.105Z,11.90
2017-11-07T05:18:37.985Z,11.80
2017-11-07T05:19:11.921Z,12.68
2017-11-07T05:19:45.821Z,12.05
2017-11-07T05:20:19.702Z,11.82
2017-11-07T05:20:53.606Z,11.27
2017-11-07T05:21:27.494Z,11.35
2017-11-07T05:22:01.400Z,11.52
2017-11-07T05:22:35.293Z,11.30
2017-11-07T05:23:09.192Z,12.30
2017-11-07T05:23:43.088Z,12.65
2017-11-07T05:24:16.982Z,12.90
2017-11-07T05:24:50.869Z,12.80
2017-11-07T05:25:24.767Z,11.32
2017-11-07T05:25:58.661Z,18.25
2017-11-07T05:26:32.560Z,13.65
2017-11-07T05:27:06.496Z,12.00
2017-11-07T05:27:40.387Z,12.82
2017-11-07T05:28:14.275Z,13.25
2017-11-07T05:28:48.167Z,12.50
2017-11-07T05:29:23.022Z,11.10
2017-11-07T05:29:56.915Z,12.60
2017-11-07T05:30:30.800Z,12.77
2017-11-07T05:31:05.632Z,12.35
2017-11-07T05:31:39.524Z,12.13
2017-11-07T05:32:13.446Z,12.18
2017-11-07T05:32:47.350Z,11.70
2017-11-07T05:33:21.235Z,13.38
2017-11-07T05:34:35.349Z,11.80
2017-11-07T05:35:09.246Z,13.45
2017-11-07T05:35:43.138Z,13.98
2017-11-07T05:36:17.023Z,12.73
2017-11-07T05:36:50.922Z,13.48
2017-11-07T05:37:24.819Z,13.60
2017-11-07T05:37:58.713Z,12.32
2017-11-07T05:38:32.603Z,11.65
2017-11-07T05:39:06.519Z,13.38
2017-11-07T05:39:40.446Z,12.98
2017-11-07T05:40:14.334Z,12.95
2017-11-07T05:40:48.217Z,13.38
2017-11-07T05:41:22.127Z,12.02
2017-11-07T05:41:56.036Z,14.10
2017-11-07T05:42:29.938Z,13.73
2017-11-07T05:43:03.827Z,13.25
2017-11-07T05:43:37.715Z,12.43
2017-11-07T05:44:11.610Z,13.25
2017-11-07T05:44:45.509Z,14.63
2017-11-07T05:45:19.414Z,11.98
2017-11-07T05:45:53.318Z,13.48
2017-11-07T05:46:27.199Z,13.73
2017-11-07T05:47:01.093Z,12.55
2017-11-07T05:47:34.988Z,13.07
2017-11-07T05:48:08.879Z,12.20
2017-11-07T05:48:42.774Z,12.55
2017-11-07T05:49:16.670Z,12.57
2017-11-07T05:49:50.588Z,12.43
2017-11-07T05:50:24.460Z,13.32
2017-11-07T05:50:59.307Z,14.65
2017-11-07T05:51:33.236Z,12.48
2017-11-07T05:52:07.164Z,13.30
2017-11-07T05:52:41.063Z,14.35
2017-11-07T05:53:14.936Z,12.80
2017-11-07T05:53:48.813Z,13.60
2017-11-07T05:54:22.719Z,12.70
2017-11-07T05:54:56.601Z,13.70
2017-11-07T05:55:30.498Z,13.15
2017-11-07T05:56:04.441Z,13.88
2017-11-07T05:56:38.334Z,14.07
2017-11-07T05:57:12.217Z,14.35
2017-11-07T05:57:46.195Z,14.13
2017-11-07T05:58:20.072Z,13.05
2017-11-07T05:58:53.964Z,15.15
2017-11-07T05:59:27.857Z,15.32
2017-11-07T06:00:01.798Z,14.35
2017-11-07T06:00:35.971Z,14.80
2017-11-07T06:01:09.859Z,15.60
2017-11-07T06:01:43.751Z,15.05
2017-11-07T06:02:17.667Z,15.63
2017-11-07T06:02:51.573Z,14.30
2017-11-07T06:03:25.467Z,16.00
2017-11-07T06:03:59.398Z,14.93
2017-11-07T06:04:33.295Z,14.60
2017-11-07T06:05:07.190Z,15.10
2017-11-07T06:05:41.085Z,15.88
2017-11-07T06:06:14.977Z,14.87
2017-11-07T06:06:48.873Z,15.05
2017-11-07T06:07:22.802Z,16.02
2017-11-07T06:07:56.730Z,15.18
2017-11-07T06:08:30.624Z,14.00
2017-11-07T06:09:04.513Z,15.25
2017-11-07T06:09:38.396Z,13.90
2017-11-07T06:10:12.285Z,13.00
2017-11-07T06:10:46.166Z,14.55
2017-11-07T06:11:20.061Z,14.57
2017-11-07T06:11:53.939Z,15.55
2017-11-07T06:12:27.849Z,13.25
2017-11-07T06:13:01.752Z,14.20
2017-11-07T06:13:35.641Z,14.87
2017-11-07T06:14:09.537Z,14.05
2017-11-07T06:14:43.465Z,13.62
2017-11-07T06:15:17.399Z,16.05
2017-11-07T06:15:51.461Z,15.68
2017-11-07T06:16:25.357Z,14.00
2017-11-07T06:16:59.256Z,15.15
2017-11-07T06:17:33.448Z,17.90
2017-11-07T06:18:07.343Z,17.30
2017-11-07T06:18:41.632Z,16.08
2017-11-07T06:19:15.512Z,14.15
2017-11-07T06:19:49.644Z,13.45
2017-11-07T06:20:23.575Z,14.40
2017-11-07T06:20:57.468Z,13.77
2017-11-07T06:21:31.362Z,14.13
2017-11-07T06:22:05.326Z,15.48
2017-11-07T06:22:40.098Z,13.88
2017-11-07T06:23:14.785Z,14.18
2017-11-07T06:23:49.465Z,13.10
2017-11-07T06:24:23.380Z,14.93
2017-11-07T06:24:57.287Z,19.35
2017-11-07T06:25:31.180Z,17.20
2017-11-07T06:26:05.248Z,14.75
2017-11-07T06:26:39.119Z,13.52
2017-11-07T06:27:13.761Z,12.60
2017-11-07T06:27:47.651Z,11.95
2017-11-07T06:28:21.545Z,12.98
2017-11-07T06:28:55.461Z,14.70
2017-11-07T06:29:29.372Z,12.52
2017-11-07T06:30:03.931Z,13.27
2017-11-07T06:30:37.819Z,13.55
2017-11-07T06:31:11.732Z,12.60
2017-11-07T06:31:45.753Z,12.77
2017-11-07T06:32:20.874Z,12.40
2017-11-07T06:32:54.793Z,13.32
2017-11-07T06:33:28.732Z,14.70
2017-11-07T06:34:02.755Z,14.10
2017-11-07T06:34:36.669Z,12.40
2017-11-07T06:35:10.660Z,12.35
2017-11-07T06:35:44.571Z,12.23
2017-11-07T06:36:18.462Z,14.15
2017-11-07T06:36:52.375Z,18.73
2017-11-07T06:37:26.261Z,17.23
2017-11-07T06:38:00.137Z,15.05
2017-11-07T06:38:34.139Z,14.10
2017-11-07T06:39:08.283Z,12.30
2017-11-07T06:39:42.885Z,14.55
2017-11-07T06:40:17.673Z,12.35
2017-11-07T06:40:51.572Z,12.43
2017-11-07T06:41:25.489Z,12.95
2017-11-07T06:41:59.450Z,11.90
2017-11-07T06:42:33.566Z,12.52
2017-11-07T06:43:07.462Z,13.75
2017-11-07T06:43:41.379Z,10.88
2017-11-07T06:44:15.272Z,13.82
2017-11-07T06:44:49.857Z,12.80
2017-11-07T06:45:23.833Z,13.25
2017-11-07T06:45:57.779Z,12.20
2017-11-07T06:46:31.718Z,12.85
2017-11-07T06:47:05.643Z,12.98
2017-11-07T06:47:39.592Z,12.77
2017-11-07T06:48:13.488Z,14.05
2017-11-07T06:48:47.383Z,13.07
2017-11-07T06:49:21.585Z,13.38
2017-11-07T06:49:55.485Z,13.20
2017-11-07T06:50:29.443Z,11.77
2017-11-07T06:51:03.343Z,12.65
2017-11-07T06:51:37.223Z,12.20
2017-11-07T06:52:11.122Z,13.88
2017-11-07T06:52:45.001Z,11.40
2017-11-07T06:53:18.914Z,13.15
2017-11-07T06:53:52.890Z,13.52
2017-11-07T06:54:26.891Z,13.18
2017-11-07T06:55:00.769Z,13.45
2017-11-07T06:55:34.663Z,13.68
2017-11-07T06:56:08.559Z,11.95
2017-11-07T06:56:42.470Z,14.27
2017-11-07T06:57:16.433Z,12.55
2017-11-07T06:57:50.344Z,14.00
2017-11-07T06:58:24.282Z,13.20
2017-11-07T06:58:58.213Z,15.00
2017-11-07T06:59:32.133Z,15.38
2017-11-07T07:00:06.028Z,13.75
2017-11-07T07:00:41.393Z,13.20
2017-11-07T07:01:15.348Z,12.98
2017-11-07T07:01:49.509Z,15.00
2017-11-07T07:02:23.496Z,12.37
2017-11-07T07:02:58.025Z,12.18
2017-11-07T07:03:31.964Z,13.82
2017-11-07T07:04:06.009Z,13.52
2017-11-07T07:04:40.376Z,14.93
2017-11-07T07:05:14.397Z,15.02
2017-11-07T07:05:48.375Z,14.38
2017-11-07T07:06:22.876Z,14.18
2017-11-07T07:06:56.940Z,13.62
2017-11-07T07:07:31.156Z,13.40
2017-11-07T07:08:07.724Z,13.65
2017-11-07T07:08:41.758Z,14.13
2017-11-07T07:09:17.071Z,12.85
2017-11-07T07:09:51.015Z,13.77
2017-11-07T07:10:24.974Z,12.70
2017-11-07T07:10:58.961Z,13.57
2017-11-07T07:11:32.958Z,13.45
2017-11-07T07:12:06.923Z,12.73
2017-11-07T07:12:41.308Z,13.52
2017-11-07T07:13:15.719Z,14.35
2017-11-07T07:13:49.644Z,13.93
2017-11-07T07:14:23.625Z,14.00
2017-11-07T07:14:58.154Z,14.85
2017-11-07T07:15:32.044Z,14.38
2017-11-07T07:16:06.010Z,13.38
2017-11-07T07:16:40.105Z,12.73
2017-11-07T07:17:15.190Z,13.60
2017-11-07T07:17:49.203Z,13.25
2017-11-07T07:18:23.383Z,14.70
2017-11-07T07:18:57.501Z,13.55
2017-11-07T07:19:33.212Z,13.15
2017-11-07T07:20:07.169Z,12.68
2017-11-07T07:20:43.976Z,12.68
2017-11-07T07:21:19.582Z,14.60
2017-11-07T07:21:53.761Z,12.70
2017-11-07T07:22:28.105Z,13.43